createdAt,value
2022-09-12T00:02:06.159Z,16.03
2022-09-12T00:04:32.921Z,16.07
2022-09-12T00:06:59.911Z,16.13
2022-09-12T00:09:26.733Z,16.12
2022-09-12T00:11:53.550Z,16.12
2022-09-12T00:14:21.479Z,16.10
2022-09-12T00:16:48.387Z,16.08
2022-09-12T00:19:15.566Z,16.12
2022-09-12T00:21:45.752Z,16.19
2022-09-12T00:24:12.788Z,16.06
2022-09-12T00:26:39.759Z,15.97
2022-09-12T00:29:06.931Z,15.96
2022-09-12T00:31:34.169Z,16.00
2022-09-12T00:34:02.256Z,15.95
2022-09-12T00:36:30.541Z,15.93
2022-09-12T00:38:57.685Z,15.91
2022-09-12T00:41:33.907Z,15.95
2022-09-12T00:44:06.123Z,15.97
2022-09-12T00:46:36.305Z,16.08
2022-09-12T00:49:13.736Z,16.01
2022-09-12T00:51:47.003Z,15.93
2022-09-12T00:54:19.365Z,15.91
2022-09-12T00:56:51.314Z,15.82
2022-09-12T00:59:22.833Z,15.78
2022-09-12T01:01:52.112Z,15.81
2022-09-12T01:04:22.162Z,15.70
2022-09-12T01:06:50.426Z,15.68
2022-09-12T01:09:20.869Z,15.68
2022-09-12T01:11:49.658Z,15.60
2022-09-12T01:14:20.481Z,15.62
2022-09-12T01:16:49.388Z,15.63
2022-09-12T01:19:53.740Z,15.62
2022-09-12T01:22:59.788Z,15.59
2022-09-12T01:25:45.812Z,15.65
2022-09-12T01:28:42.998Z,15.49
2022-09-12T01:31:54.463Z,15.51
2022-09-12T01:34:28.300Z,15.52
2022-09-12T01:37:34.408Z,15.50
2022-09-12T01:40:07.357Z,15.50
2022-09-12T01:42:56.754Z,15.47
2022-09-12T01:45:39.166Z,15.50
2022-09-12T01:48:20.732Z,15.52
2022-09-12T01:50:56.054Z,15.54
2022-09-12T01:53:27.821Z,15.56
2022-09-12T01:56:01.145Z,15.57
2022-09-12T01:58:42.127Z,15.58
2022-09-12T02:01:22.308Z,15.57
2022-09-12T02:04:01.162Z,15.50
2022-09-12T02:06:44.378Z,15.46
2022-09-12T02:09:26.076Z,15.46
2022-09-12T02:11:58.066Z,15.41
2022-09-12T02:14:29.636Z,15.56
2022-09-12T02:17:04.520Z,15.48
2022-09-12T02:19:37.719Z,15.43
2022-09-12T02:22:06.563Z,15.43
2022-09-12T02:24:40.685Z,15.30
2022-09-12T02:27:15.527Z,15.18
2022-09-12T02:29:45.083Z,15.12
2022-09-12T02:32:44.579Z,15.07
2022-09-12T02:35:22.654Z,15.24
2022-09-12T02:37:52.455Z,15.33
2022-09-12T02:40:19.672Z,15.43
2022-09-12T02:42:46.528Z,15.53
2022-09-12T02:45:14.385Z,15.60
2022-09-12T02:47:49.405Z,15.62
2022-09-12T02:50:17.180Z,15.71
2022-09-12T02:52:44.244Z,15.79
2022-09-12T02:55:15.043Z,15.74
2022-09-12T02:57:41.836Z,15.76
2022-09-12T03:00:09.258Z,15.77
2022-09-12T03:02:36.238Z,15.79
2022-09-12T03:05:21.543Z,15.69
2022-09-12T03:08:12.621Z,15.66
2022-09-12T03:10:57.344Z,15.67
2022-09-12T03:13:40.564Z,15.76
2022-09-12T03:16:10.020Z,15.89
2022-09-12T03:19:06.419Z,15.92
2022-09-12T03:22:07.370Z,15.82
2022-09-12T03:24:46.995Z,15.86
2022-09-12T03:27:30.324Z,15.82
2022-09-12T03:29:57.957Z,15.83
2022-09-12T03:32:41.133Z,15.86
2022-09-12T03:35:08.186Z,15.99
2022-09-12T03:37:35.270Z,16.25
2022-09-12T03:40:04.104Z,16.28
2022-09-12T03:42:31.126Z,16.20
2022-09-12T03:44:58.071Z,16.08
2022-09-12T03:47:25.171Z,15.95
2022-09-12T03:49:52.796Z,15.88
2022-09-12T03:52:20.094Z,15.83
2022-09-12T03:54:47.096Z,15.77
2022-09-12T03:57:14.018Z,15.62
2022-09-12T03:59:40.907Z,15.68
2022-09-12T04:02:08.000Z,15.65
2022-09-12T04:04:34.787Z,15.64
2022-09-12T04:07:01.783Z,15.53
2022-09-12T04:09:28.490Z,15.51
2022-09-12T04:11:55.549Z,15.64
2022-09-12T04:14:22.271Z,15.62
2022-09-12T04:16:49.294Z,15.65
2022-09-12T04:19:16.036Z,15.66
2022-09-12T04:21:43.192Z,15.61
2022-09-12T04:24:09.917Z,15.62
2022-09-12T04:26:36.812Z,15.57
2022-09-12T04:29:03.999Z,15.57
2022-09-12T04:31:30.870Z,15.62
2022-09-12T04:33:59.806Z,15.53
2022-09-12T04:36:28.779Z,15.51
2022-09-12T04:38:56.245Z,15.45
2022-09-12T04:41:28.632Z,15.40
2022-09-12T04:44:02.578Z,15.44
2022-09-12T04:46:31.672Z,15.49
2022-09-12T04:48:58.748Z,15.53
2022-09-12T04:51:28.624Z,15.56
2022-09-12T04:53:58.124Z,15.62
2022-09-12T04:56:25.970Z,15.63
2022-09-12T04:58:52.729Z,15.63
2022-09-12T05:01:21.831Z,15.57
2022-09-12T05:03:49.971Z,15.56
2022-09-12T05:06:31.766Z,15.70
2022-09-12T05:09:00.191Z,15.61
2022-09-12T05:11:46.864Z,15.65
2022-09-12T05:14:17.293Z,15.59
2022-09-12T05:16:47.294Z,15.45
2022-09-12T05:19:15.847Z,15.47
2022-09-12T05:21:42.694Z,15.49
2022-09-12T05:24:11.363Z,15.49
2022-09-12T05:26:38.899Z,15.46
2022-09-12T05:29:07.244Z,15.35
2022-09-12T05:31:35.137Z,15.39
2022-09-12T05:34:07.250Z,15.34
2022-09-12T05:36:34.314Z,15.33
2022-09-12T05:39:01.394Z,15.34
2022-09-12T05:41:30.968Z,15.38
2022-09-12T05:44:04.362Z,15.47
2022-09-12T05:46:40.137Z,15.52
2022-09-12T05:49:10.073Z,15.49
2022-09-12T05:51:39.527Z,15.53
2022-09-12T05:54:09.157Z,15.54
2022-09-12T05:56:41.027Z,15.55
2022-09-12T05:59:18.202Z,15.82
2022-09-12T06:01:45.759Z,15.78
2022-09-12T06:04:13.063Z,15.70
2022-09-12T06:06:45.296Z,15.69
2022-09-12T06:09:14.478Z,15.86
2022-09-12T06:11:42.357Z,15.89
2022-09-12T06:14:11.097Z,15.86
2022-09-12T06:16:39.112Z,15.92
2022-09-12T06:19:15.063Z,15.81
2022-09-12T06:21:42.032Z,15.82
2022-09-12T06:24:08.793Z,15.87
2022-09-12T06:26:36.133Z,15.99
2022-09-12T06:29:03.501Z,16.24
2022-09-12T06:31:33.706Z,16.37
2022-09-12T06:34:02.863Z,16.54
2022-09-12T06:39:11.428Z,16.85
2022-09-12T06:41:42.974Z,16.99
2022-09-12T06:44:17.165Z,17.02
2022-09-12T06:46:44.757Z,17.08
2022-09-12T06:49:11.978Z,17.16
2022-09-12T06:51:38.785Z,17.36
2022-09-12T06:54:05.850Z,17.60
2022-09-12T06:56:32.670Z,17.84
2022-09-12T06:59:00.061Z,18.01
2022-09-12T07:01:29.505Z,18.24
2022-09-12T07:03:59.588Z,18.26
2022-09-12T07:06:32.058Z,18.20
2022-09-12T07:09:01.091Z,17.88
2022-09-12T07:11:34.240Z,17.94
2022-09-12T07:14:03.217Z,17.92
2022-09-12T07:16:30.865Z,17.88
2022-09-12T07:19:00.191Z,18.14
2022-09-12T07:21:27.590Z,18.31
2022-09-12T07:24:00.653Z,18.70
2022-09-12T07:26:29.383Z,19.54
2022-09-12T07:29:12.814Z,19.86
2022-09-12T07:31:45.838Z,19.89
2022-09-12T07:34:13.052Z,19.58
2022-09-12T07:36:40.040Z,19.68
2022-09-12T07:39:07.029Z,19.64
2022-09-12T07:41:36.843Z,19.44
2022-09-12T07:44:06.842Z,19.30
2022-09-12T07:46:34.461Z,19.16
2022-09-12T07:49:02.361Z,18.76
2022-09-12T07:51:31.341Z,18.58
2022-09-12T07:53:58.820Z,19.00
2022-09-12T07:56:30.220Z,19.47
2022-09-12T07:58:59.106Z,19.35
2022-09-12T08:01:26.574Z,19.15
2022-09-12T08:03:57.083Z,18.96
2022-09-12T08:06:25.987Z,18.74
2022-09-12T08:08:55.059Z,18.64
2022-09-12T08:11:23.697Z,18.40
2022-09-12T08:13:55.363Z,18.28
2022-09-12T08:16:25.841Z,18.32
2022-09-12T08:18:52.792Z,18.06
2022-09-12T08:21:28.380Z,17.95
2022-09-12T08:23:58.314Z,18.01
2022-09-12T08:26:25.437Z,17.97
2022-09-12T08:28:53.402Z,17.90
2022-09-12T08:31:21.942Z,17.90
2022-09-12T08:33:48.985Z,17.72
2022-09-12T08:36:16.621Z,17.60
2022-09-12T08:38:45.567Z,17.58
2022-09-12T08:41:19.201Z,17.95
2022-09-12T08:44:11.763Z,18.10
2022-09-12T08:46:57.376Z,17.98
2022-09-12T08:49:51.770Z,17.77
2022-09-12T08:52:24.256Z,17.78
2022-09-12T08:54:51.750Z,17.86
2022-09-12T08:57:19.331Z,18.23
2022-09-12T08:59:46.723Z,18.45
2022-09-12T09:02:38.664Z,18.42
2022-09-12T09:05:15.572Z,18.25
2022-09-12T09:08:16.284Z,18.77
2022-09-12T09:10:53.992Z,19.20
2022-09-12T09:14:05.064Z,18.98
2022-09-12T09:16:42.568Z,18.80
2022-09-12T09:19:37.794Z,19.12
2022-09-12T09:22:12.180Z,18.71
2022-09-12T09:24:46.439Z,18.28
2022-09-12T09:27:41.642Z,18.64
2022-09-12T09:30:18.418Z,18.38
2022-09-12T09:32:51.022Z,18.60
2022-09-12T09:35:27.852Z,18.48
2022-09-12T09:38:08.845Z,18.03
2022-09-12T09:40:51.907Z,18.37
2022-09-12T09:43:23.885Z,17.95
2022-09-12T09:45:52.221Z,18.22
2022-09-12T09:48:25.562Z,17.68
2022-09-12T09:50:53.067Z,17.66
2022-09-12T09:53:32.090Z,18.08
2022-09-12T09:56:03.549Z,18.17
2022-09-12T09:58:35.240Z,18.82
2022-09-12T10:01:06.063Z,19.10
2022-09-12T10:03:40.446Z,19.26
2022-09-12T10:06:23.824Z,19.55
2022-09-12T10:08:51.211Z,19.68
2022-09-12T10:11:23.323Z,19.96
2022-09-12T10:14:00.192Z,20.20
2022-09-12T10:16:31.827Z,20.03
2022-09-12T10:19:01.764Z,19.80
2022-09-12T10:21:36.062Z,19.41
2022-09-12T10:24:14.568Z,19.76
2022-09-12T10:26:45.173Z,19.83
2022-09-12T10:29:24.140Z,19.46
2022-09-12T10:31:55.073Z,19.63
2022-09-12T10:34:30.695Z,19.70
2022-09-12T10:37:26.406Z,19.94
2022-09-12T10:39:57.203Z,19.89
2022-09-12T10:42:46.432Z,19.97
2022-09-12T10:45:20.126Z,20.12
2022-09-12T10:47:47.305Z,19.99
2022-09-12T10:50:41.640Z,19.82
2022-09-12T10:53:20.556Z,19.86
2022-09-12T10:55:53.517Z,19.77
2022-09-12T10:58:42.122Z,19.74
2022-09-12T11:01:41.782Z,19.77
2022-09-12T11:04:52.086Z,19.78
2022-09-12T11:07:40.777Z,19.96
2022-09-12T11:10:10.267Z,19.96
2022-09-12T11:12:53.226Z,20.21
2022-09-12T11:15:25.642Z,20.35
2022-09-12T11:18:07.675Z,20.42
2022-09-12T11:21:12.626Z,20.34
2022-09-12T11:23:45.478Z,20.22
2022-09-12T11:26:15.623Z,20.15
2022-09-12T11:28:47.094Z,20.31
2022-09-12T11:31:39.054Z,19.93
2022-09-12T11:34:10.540Z,20.07
2022-09-12T11:36:43.290Z,20.53
2022-09-12T11:39:15.880Z,21.07
2022-09-12T11:41:48.485Z,21.15
2022-09-12T11:44:15.189Z,21.19
2022-09-12T11:46:49.816Z,21.43
2022-09-12T11:49:35.279Z,21.60
2022-09-12T11:52:22.834Z,21.55
2022-09-12T11:55:24.761Z,21.62
2022-09-12T11:57:57.084Z,21.62
2022-09-12T12:00:30.085Z,21.75
2022-09-12T12:03:21.015Z,21.88
2022-09-12T12:06:02.760Z,22.02
2022-09-12T12:08:33.412Z,21.90
2022-09-12T12:11:02.533Z,22.05
2022-09-12T12:13:34.320Z,22.08
2022-09-12T12:16:08.534Z,21.84
2022-09-12T12:18:39.240Z,22.21
2022-09-12T12:21:37.825Z,22.60
2022-09-12T12:24:13.255Z,22.71
2022-09-12T12:26:40.205Z,22.71
2022-09-12T12:29:13.942Z,22.53
2022-09-12T12:31:59.324Z,22.21
2022-09-12T12:34:36.777Z,22.66
2022-09-12T12:37:19.209Z,22.62
2022-09-12T12:39:50.013Z,22.65
2022-09-12T12:42:35.285Z,22.63
2022-09-12T12:45:04.422Z,22.21
2022-09-12T12:47:44.733Z,22.28
2022-09-12T12:50:11.396Z,22.27
2022-09-12T12:52:56.071Z,22.20
2022-09-12T12:55:31.377Z,22.40
2022-09-12T12:58:00.906Z,22.65
2022-09-12T13:00:32.817Z,22.83
2022-09-12T13:03:10.594Z,22.95
2022-09-12T13:05:54.308Z,22.91
2022-09-12T13:08:21.154Z,22.20
2022-09-12T13:11:08.127Z,22.24
2022-09-12T13:13:37.665Z,22.42
2022-09-12T13:16:04.864Z,22.15
2022-09-12T13:18:52.091Z,22.30
2022-09-12T13:21:21.814Z,22.49
2022-09-12T13:24:03.543Z,22.39
2022-09-12T13:26:36.121Z,22.11
2022-09-12T13:29:29.418Z,22.41
2022-09-12T13:31:59.558Z,22.19
2022-09-12T13:34:35.374Z,22.21
2022-09-12T13:37:11.438Z,22.14
2022-09-12T13:39:47.718Z,22.32
2022-09-12T13:42:36.034Z,22.35
2022-09-12T13:45:22.860Z,22.37
2022-09-12T13:48:00.582Z,22.70
2022-09-12T13:50:32.292Z,22.76
2022-09-12T13:53:07.308Z,22.83
2022-09-12T13:55:43.119Z,22.94
2022-09-12T13:58:24.053Z,22.75
2022-09-12T14:01:06.088Z,22.66
2022-09-12T14:04:00.663Z,22.89
2022-09-12T14:06:31.701Z,22.62
2022-09-12T14:09:03.110Z,22.56
2022-09-12T14:11:35.236Z,22.68
2022-09-12T14:14:06.543Z,22.67
2022-09-12T14:16:42.182Z,22.38
2022-09-12T14:19:12.316Z,22.48
2022-09-12T14:21:39.270Z,22.48
2022-09-12T14:24:08.652Z,22.45
2022-09-12T14:26:42.128Z,22.62
2022-09-12T14:29:12.609Z,22.53
2022-09-12T14:31:39.890Z,22.44
2022-09-12T14:34:12.687Z,22.39
2022-09-12T14:36:50.232Z,22.47
2022-09-12T14:39:30.898Z,22.71
2022-09-12T14:42:21.036Z,22.50
2022-09-12T14:45:18.523Z,22.23
2022-09-12T14:47:51.105Z,22.30
2022-09-12T14:50:22.815Z,22.38
2022-09-12T14:53:32.836Z,22.37
2022-09-12T14:56:12.547Z,22.14
2022-09-12T14:58:41.250Z,22.42
2022-09-12T15:01:08.323Z,22.37
2022-09-12T15:03:52.089Z,22.31
2022-09-12T15:06:36.300Z,22.53
2022-09-12T15:09:07.432Z,22.44
2022-09-12T15:11:34.207Z,22.32
2022-09-12T15:14:21.165Z,22.32
2022-09-12T15:16:48.009Z,22.30
2022-09-12T15:19:14.967Z,22.07
2022-09-12T15:21:41.959Z,22.21
2022-09-12T15:24:09.331Z,22.32
2022-09-12T15:26:36.107Z,22.31
2022-09-12T15:29:03.613Z,22.24
2022-09-12T15:31:33.531Z,22.03
2022-09-12T15:34:04.881Z,21.99
2022-09-12T15:36:31.648Z,22.10
2022-09-12T15:38:59.025Z,22.05
2022-09-12T15:41:31.942Z,21.84
2022-09-12T15:43:59.124Z,21.72
2022-09-12T15:46:25.952Z,21.66
2022-09-12T15:48:52.771Z,21.79
2022-09-12T15:51:22.842Z,21.56
2022-09-12T15:53:53.464Z,21.56
2022-09-12T15:56:21.977Z,21.55
2022-09-12T15:58:58.702Z,21.54
2022-09-12T16:01:27.111Z,21.70
2022-09-12T16:03:54.471Z,21.62
2022-09-12T16:06:24.964Z,21.55
2022-09-12T16:08:51.898Z,21.58
2022-09-12T16:11:24.862Z,21.73
2022-09-12T16:13:55.397Z,21.60
2022-09-12T16:16:22.654Z,21.66
2022-09-12T16:18:49.793Z,21.54
2022-09-12T16:21:16.843Z,21.49
2022-09-12T16:23:44.950Z,21.46
2022-09-12T16:26:12.025Z,21.31
2022-09-12T16:28:39.033Z,21.22
2022-09-12T16:31:07.971Z,21.33
2022-09-12T16:33:35.340Z,21.39
2022-09-12T16:36:06.123Z,21.22
2022-09-12T16:38:34.081Z,21.20
2022-09-12T16:41:06.067Z,21.09
2022-09-12T16:43:33.743Z,21.11
2022-09-12T16:46:06.804Z,21.18
2022-09-12T16:48:34.933Z,21.09
2022-09-12T16:51:05.313Z,21.03
2022-09-12T16:53:37.306Z,20.95
2022-09-12T16:56:07.692Z,20.92
2022-09-12T16:58:42.053Z,20.88
2022-09-12T17:01:14.596Z,20.72
2022-09-12T17:03:42.131Z,20.64
2022-09-12T17:06:14.351Z,20.73
2022-09-12T17:08:45.720Z,20.74
2022-09-12T17:11:17.892Z,20.82
2022-09-12T17:14:04.579Z,20.73
2022-09-12T17:16:41.082Z,20.44
2022-09-12T17:19:09.186Z,20.33
2022-09-12T17:21:36.659Z,20.24
2022-09-12T17:24:03.992Z,20.02
2022-09-12T17:26:33.506Z,19.92
2022-09-12T17:29:00.729Z,19.82
2022-09-12T17:31:28.132Z,19.83
2022-09-12T17:33:59.637Z,19.83
2022-09-12T17:36:27.638Z,19.79
2022-09-12T17:38:54.461Z,19.69
2022-09-12T17:41:24.236Z,19.57
2022-09-12T17:43:55.749Z,19.42
2022-09-12T17:46:25.436Z,19.30
2022-09-12T17:48:59.014Z,19.34
2022-09-12T17:51:30.838Z,19.36
2022-09-12T17:56:31.008Z,19.28
2022-09-12T17:58:58.747Z,19.09
2022-09-12T18:01:45.921Z,19.06
2022-09-12T18:04:16.679Z,19.08
2022-09-12T18:06:48.213Z,18.90
2022-09-12T18:09:21.312Z,18.80
2022-09-12T18:11:50.320Z,18.74
2022-09-12T18:14:18.209Z,18.77
2022-09-12T18:16:46.179Z,18.83
2022-09-12T18:19:16.760Z,18.65
2022-09-12T18:21:43.991Z,18.67
2022-09-12T18:24:11.370Z,18.70
2022-09-12T18:26:38.634Z,18.59
2022-09-12T18:29:05.440Z,18.45
2022-09-12T18:31:32.611Z,18.46
2022-09-12T18:34:02.775Z,18.35
2022-09-12T18:36:30.886Z,18.33
2022-09-12T18:38:59.034Z,18.29
2022-09-12T18:41:26.775Z,18.23
2022-09-12T18:43:58.939Z,18.12
2022-09-12T18:46:30.377Z,18.06
2022-09-12T18:48:58.774Z,18.03
2022-09-12T18:51:35.710Z,17.93
2022-09-12T18:54:08.888Z,17.94
2022-09-12T18:56:38.749Z,17.83
2022-09-12T18:59:07.454Z,17.80
2022-09-12T19:01:36.855Z,17.80
2022-09-12T19:04:05.091Z,17.72
2022-09-12T19:06:38.029Z,17.77
2022-09-12T19:09:09.280Z,17.70
2022-09-12T19:11:38.619Z,17.62
2022-09-12T19:14:06.840Z,17.61
2022-09-12T19:16:33.897Z,17.57
2022-09-12T19:19:02.586Z,17.49
2022-09-12T19:21:31.285Z,17.42
2022-09-12T19:24:00.448Z,17.28
2022-09-12T19:26:27.998Z,17.27
2022-09-12T19:28:55.616Z,17.20
2022-09-12T19:31:23.474Z,17.27
2022-09-12T19:33:50.714Z,17.29
2022-09-12T19:36:43.669Z,17.30
2022-09-12T19:39:09.737Z,17.21
2022-09-12T19:41:37.060Z,17.26
2022-09-12T19:44:04.913Z,17.08
2022-09-12T19:46:32.018Z,17.11
2022-09-12T19:48:58.848Z,17.08
2022-09-12T19:51:26.013Z,16.95
2022-09-12T19:53:55.597Z,16.79
2022-09-12T19:56:22.347Z,16.71
2022-09-12T19:58:55.300Z,16.67
2022-09-12T20:01:25.897Z,16.70
2022-09-12T20:03:54.052Z,16.69
2022-09-12T20:06:24.931Z,16.73
2022-09-12T20:08:51.807Z,16.71
2022-09-12T20:11:23.886Z,16.66
2022-09-12T20:13:51.485Z,16.51
2022-09-12T20:16:25.422Z,16.38
2022-09-12T20:19:00.463Z,16.36
2022-09-12T20:21:33.046Z,16.35
2022-09-12T20:24:14.216Z,16.30
2022-09-12T20:26:41.134Z,16.31
2022-09-12T20:29:08.945Z,16.29
2022-09-12T20:31:37.866Z,16.21
2022-09-12T20:34:07.983Z,16.20
2022-09-12T20:36:34.729Z,16.20
2022-09-12T20:39:02.624Z,16.25
2022-09-12T20:41:32.204Z,16.24
2022-09-12T20:43:59.511Z,16.21
2022-09-12T20:46:27.523Z,16.16
2022-09-12T20:48:54.809Z,16.11
2022-09-12T20:51:22.260Z,16.11
2022-09-12T20:53:53.382Z,15.99
2022-09-12T20:56:20.793Z,15.89
2022-09-12T20:58:47.583Z,15.98
2022-09-12T21:01:16.076Z,15.83
2022-09-12T21:03:44.097Z,15.82
2022-09-12T21:06:17.029Z,15.69
2022-09-12T21:08:44.484Z,15.75
2022-09-12T21:11:11.612Z,15.82
2022-09-12T21:13:39.086Z,15.70
2022-09-12T21:16:10.684Z,15.61
2022-09-12T21:18:38.326Z,15.63
2022-09-12T21:21:06.067Z,15.66
2022-09-12T21:23:33.751Z,15.57
2022-09-12T21:26:01.556Z,15.52
2022-09-12T21:28:28.689Z,15.47
2022-09-12T21:30:56.126Z,15.49
2022-09-12T21:33:24.179Z,15.51
2022-09-12T21:35:50.956Z,15.46
2022-09-12T21:38:19.183Z,15.41
2022-09-12T21:40:47.188Z,15.40
2022-09-12T21:43:14.517Z,15.41
2022-09-12T21:45:41.259Z,15.39
2022-09-12T21:48:08.058Z,15.32
2022-09-12T21:50:34.826Z,15.30
2022-09-12T21:53:01.609Z,15.27
2022-09-12T21:55:28.382Z,15.18
2022-09-12T21:57:55.629Z,15.29
2022-09-12T22:00:22.675Z,15.30
2022-09-12T22:02:49.665Z,15.33
2022-09-12T22:05:17.457Z,15.29
2022-09-12T22:07:44.639Z,15.23
2022-09-12T22:10:11.458Z,15.10
2022-09-12T22:12:40.759Z,15.08
2022-09-12T22:15:36.389Z,14.99
2022-09-12T22:17:57.176Z,14.89
2022-09-12T22:20:23.898Z,14.85
2022-09-12T22:23:09.064Z,14.96
2022-09-12T22:25:35.958Z,14.92
2022-09-12T22:28:02.686Z,14.97
2022-09-12T22:30:29.521Z,14.89
2022-09-12T22:32:56.287Z,14.84
2022-09-12T22:35:23.105Z,14.76
2022-09-12T22:37:49.888Z,14.75
2022-09-12T22:40:16.966Z,14.81
2022-09-12T22:42:43.741Z,14.73
2022-09-12T22:45:10.778Z,14.78
2022-09-12T22:47:37.584Z,14.75
2022-09-12T22:50:04.835Z,14.72
2022-09-12T22:52:31.518Z,14.58
2022-09-12T22:54:58.969Z,14.52
2022-09-12T22:57:25.808Z,14.42
2022-09-12T22:59:52.518Z,14.50
2022-09-12T23:02:19.208Z,14.62
2022-09-12T23:04:46.864Z,14.64
2022-09-12T23:07:13.682Z,14.63
2022-09-12T23:09:40.523Z,14.62
2022-09-12T23:12:07.478Z,14.51
2022-09-12T23:14:34.325Z,14.48
2022-09-12T23:17:01.155Z,14.42
2022-09-12T23:19:27.890Z,14.35
2022-09-12T23:21:54.637Z,14.38
2022-09-12T23:24:21.453Z,14.35
2022-09-12T23:26:48.169Z,14.26
2022-09-12T23:29:15.448Z,14.25
2022-09-12T23:31:42.314Z,14.11
2022-09-12T23:34:10.493Z,14.09
2022-09-12T23:36:37.235Z,14.07
2022-09-12T23:39:04.819Z,13.90
2022-09-12T23:41:31.938Z,14.05
2022-09-12T23:43:58.993Z,13.90
2022-09-12T23:46:25.765Z,13.95
2022-09-12T23:48:55.665Z,14.06
2022-09-12T23:51:22.406Z,14.11
2022-09-12T23:53:49.626Z,13.99
2022-09-12T23:56:16.443Z,13.92
2022-09-12T23:58:43.231Z,13.95
